Time;durP1;ratioP1;P1;durP2;ratioP2;P2;SDS_P1;SDS_P2;PMS_P1;PMS_P2;Temp;Humidity;BMP_temperature;BMP_pressure;BME280_temperature;BME280_humidity;BME280_pressure;Samples;Min_cycle;Max_cycle;Signal;HPM_P1;HPM_P2
2022/09/23 00:01:52;;;;;;;2;1.8;;;;;;;;;;;;;
2022/09/23 00:04:17;;;;;;;2.2;1.9;;;;;;;;;;;;;
2022/09/23 00:06:42;;;;;;;2.8;1.6;;;;;;;;;;;;;
2022/09/23 00:09:08;;;;;;;2;1.7;;;;;;;;;;;;;
2022/09/23 00:11:33;;;;;;;2.5;2;;;;;;;;;;;;;
2022/09/23 00:13:59;;;;;;;2.6;1.8;;;;;;;;;;;;;
2022/09/23 00:16:37;;;;;;;4.3;1.7;;;;;;;;;;;;;
2022/09/23 00:18:50;;;;;;;2.3;1.8;;;;;;;;;;;;;
2022/09/23 00:21:14;;;;;;;1.7;1.6;;;;;;;;;;;;;
2022/09/23 00:23:39;;;;;;;2.2;2;;;;;;;;;;;;;
2022/09/23 00:26:06;;;;;;;1.8;1.7;;;;;;;;;;;;;
2022/09/23 00:28:31;;;;;;;2.3;1.9;;;;;;;;;;;;;
2022/09/23 00:30:56;;;;;;;2.1;1.7;;;;;;;;;;;;;
2022/09/23 00:33:21;;;;;;;2.8;1.7;;;;;;;;;;;;;
2022/09/23 00:35:48;;;;;;;2.2;1.9;;;;;;;;;;;;;
2022/09/23 00:38:27;;;;;;;2.2;1.8;;;;;;;;;;;;;
2022/09/23 00:40:52;;;;;;;1.9;1.7;;;;;;;;;;;;;
2022/09/23 00:43:17;;;;;;;2.2;1.8;;;;;;;;;;;;;
2022/09/23 00:45:42;;;;;;;3.2;1.7;;;;;;;;;;;;;
2022/09/23 00:48:08;;;;;;;6.6;2.4;;;;;;;;;;;;;
2022/09/23 00:50:34;;;;;;;2;1.7;;;;;;;;;;;;;
2022/09/23 00:52:59;;;;;;;1.9;1.7;;;;;;;;;;;;;
2022/09/23 00:55:25;;;;;;;3.5;1.8;;;;;;;;;;;;;
2022/09/23 00:57:50;;;;;;;3.7;1.7;;;;;;;;;;;;;
2022/09/23 01:00:17;;;;;;;2.5;1.8;;;;;;;;;;;;;
2022/09/23 01:02:43;;;;;;;3.2;1.9;;;;;;;;;;;;;
2022/09/23 01:05:10;;;;;;;2;1.8;;;;;;;;;;;;;
2022/09/23 01:10:01;;;;;;;2.1;1.9;;;;;;;;;;;;;
2022/09/23 01:12:29;;;;;;;2.2;1.8;;;;;;;;;;;;;
2022/09/23 01:14:54;;;;;;;7.2;2.5;;;;;;;;;;;;;
2022/09/23 01:17:19;;;;;;;2;1.7;;;;;;;;;;;;;
2022/09/23 01:19:44;;;;;;;2;1.8;;;;;;;;;;;;;
2022/09/23 01:22:09;;;;;;;3.1;2;;;;;;;;;;;;;
2022/09/23 01:24:34;;;;;;;2.5;2;;;;;;;;;;;;;
2022/09/23 01:27:00;;;;;;;2.6;2.2;;;;;;;;;;;;;
2022/09/23 01:29:27;;;;;;;3.7;1.9;;;;;;;;;;;;;
2022/09/23 01:31:52;;;;;;;2.2;1.9;;;;;;;;;;;;;
2022/09/23 01:34:17;;;;;;;3;1.9;;;;;;;;;;;;;
2022/09/23 01:36:42;;;;;;;2.8;2;;;;;;;;;;;;;
2022/09/23 01:39:07;;;;;;;2.6;2;;;;;;;;;;;;;
2022/09/23 01:41:33;;;;;;;2.1;1.8;;;;;;;;;;;;;
2022/09/23 01:43:58;;;;;;;2.5;2;;;;;;;;;;;;;
2022/09/23 01:46:26;;;;;;;2.1;1.9;;;;;;;;;;;;;
2022/09/23 01:48:51;;;;;;;3.1;2;;;;;;;;;;;;;
2022/09/23 01:51:16;;;;;;;2.9;2.1;;;;;;;;;;;;;
2022/09/23 01:53:41;;;;;;;2.3;1.8;;;;;;;;;;;;;
2022/09/23 01:56:08;;;;;;;2.2;1.7;;;;;;;;;;;;;
2022/09/23 01:58:33;;;;;;;4.3;1.9;;;;;;;;;;;;;
2022/09/23 02:00:59;;;;;;;2.3;1.9;;;;;;;;;;;;;
2022/09/23 02:03:26;;;;;;;1.8;1.7;;;;;;;;;;;;;
2022/09/23 02:05:51;;;;;;;2.3;1.8;;;;;;;;;;;;;
2022/09/23 02:08:16;;;;;;;3.8;2;;;;;;;;;;;;;
2022/09/23 02:10:47;;;;;;;3.1;2.2;;;;;;;;;;;;;
2022/09/23 02:13:14;;;;;;;3.4;2.1;;;;;;;;;;;;;
2022/09/23 02:15:39;;;;;;;2.1;1.9;;;;;;;;;;;;;
2022/09/23 02:18:04;;;;;;;2.1;1.8;;;;;;;;;;;;;
2022/09/23 02:20:29;;;;;;;3.7;2;;;;;;;;;;;;;
2022/09/23 02:22:54;;;;;;;3.8;2.1;;;;;;;;;;;;;
2022/09/23 02:25:20;;;;;;;3.3;1.9;;;;;;;;;;;;;
2022/09/23 02:27:46;;;;;;;2.7;2;;;;;;;;;;;;;
2022/09/23 02:30:11;;;;;;;6.2;2.3;;;;;;;;;;;;;
2022/09/23 02:32:39;;;;;;;2;1.8;;;;;;;;;;;;;
2022/09/23 02:35:04;;;;;;;2.9;2;;;;;;;;;;;;;
2022/09/23 02:37:30;;;;;;;2.7;1.9;;;;;;;;;;;;;
2022/09/23 02:39:57;;;;;;;2.1;1.9;;;;;;;;;;;;;
2022/09/23 02:42:22;;;;;;;3.3;2.4;;;;;;;;;;;;;
2022/09/23 02:44:47;;;;;;;3.6;2.5;;;;;;;;;;;;;
2022/09/23 02:47:40;;;;;;;3.5;2.6;;;;;;;;;;;;;
2022/09/23 02:50:05;;;;;;;5.1;2.7;;;;;;;;;;;;;
2022/09/23 02:52:35;;;;;;;2.8;2.1;;;;;;;;;;;;;
2022/09/23 02:54:59;;;;;;;2.5;2.1;;;;;;;;;;;;;
2022/09/23 02:57:24;;;;;;;2.6;2.2;;;;;;;;;;;;;
2022/09/23 02:59:49;;;;;;;2.5;1.9;;;;;;;;;;;;;
2022/09/23 03:02:16;;;;;;;2.5;1.7;;;;;;;;;;;;;
2022/09/23 03:04:41;;;;;;;2;1.8;;;;;;;;;;;;;
2022/09/23 03:07:07;;;;;;;2.9;1.8;;;;;;;;;;;;;
2022/09/23 03:09:32;;;;;;;3;1.8;;;;;;;;;;;;;
2022/09/23 03:11:58;;;;;;;2.8;1.9;;;;;;;;;;;;;
2022/09/23 03:14:22;;;;;;;3.8;1.9;;;;;;;;;;;;;
2022/09/23 03:16:49;;;;;;;3.5;2;;;;;;;;;;;;;
2022/09/23 03:19:16;;;;;;;5.1;2;;;;;;;;;;;;;
2022/09/23 03:21:40;;;;;;;4.1;2.5;;;;;;;;;;;;;
2022/09/23 03:24:26;;;;;;;3.6;2.6;;;;;;;;;;;;;
2022/09/23 03:26:52;;;;;;;2.6;2.2;;;;;;;;;;;;;
2022/09/23 03:29:19;;;;;;;4.4;3.3;;;;;;;;;;;;;
2022/09/23 03:31:44;;;;;;;3.4;2.6;;;;;;;;;;;;;
2022/09/23 03:34:10;;;;;;;2.9;2.4;;;;;;;;;;;;;
2022/09/23 03:36:53;;;;;;;3.3;2.6;;;;;;;;;;;;;
2022/09/23 03:39:02;;;;;;;6.4;3.3;;;;;;;;;;;;;
2022/09/23 03:41:27;;;;;;;4.7;2.5;;;;;;;;;;;;;
2022/09/23 03:43:56;;;;;;;4.9;2.6;;;;;;;;;;;;;
2022/09/23 03:46:20;;;;;;;2.4;2.2;;;;;;;;;;;;;
2022/09/23 03:48:45;;;;;;;3.4;2.9;;;;;;;;;;;;;
2022/09/23 03:51:10;;;;;;;4.5;3;;;;;;;;;;;;;
2022/09/23 03:53:35;;;;;;;5.2;3.1;;;;;;;;;;;;;
2022/09/23 03:56:01;;;;;;;6.3;3;;;;;;;;;;;;;
2022/09/23 03:58:26;;;;;;;3.9;2.9;;;;;;;;;;;;;
2022/09/23 04:02:35;;;;;;;4.8;3;;;;;;;4.95;90.66699;939.7196;;;;
2022/09/23 04:05:00;;;;;;;2.6;2.3;;;;;;;5.01;90.15039;939.7054;;;;
2022/09/23 04:07:28;;;;;;;3.3;2.2;;;;;;;4.99;89.74121;939.6855;;;;
2022/09/23 04:09:53;;;;;;;4.2;2.6;;;;;;;4.7;91.40332;939.6553;;;;
2022/09/23 04:12:18;;;;;;;2.5;2.2;;;;;;;4.77;91.52051;939.6774;;;;
2022/09/23 04:14:49;;;;;;;4.2;2.5;;;;;;;4.82;91.17188;939.6532;;;;
2022/09/23 04:17:17;;;;;;;5.8;3.5;;;;;;;4.85;91.4707;939.6747;;;;
2022/09/23 04:19:43;;;;;;;4.4;3.3;;;;;;;4.95;90.97363;939.6314;;;;
2022/09/23 04:22:07;;;;;;;4.6;3.4;;;;;;;5;90.43262;939.6859;;;;
2022/09/23 04:24:34;;;;;;;6.3;4.3;;;;;;;4.98;90.21289;939.6883;;;;
2022/09/23 04:27:01;;;;;;;5.5;2.8;;;;;;;4.91;90.60254;939.6616;;;;
2022/09/23 04:29:30;;;;;;;6.1;3;;;;;;;4.92;90.53711;939.5822;;;;
2022/09/23 04:31:55;;;;;;;3.5;2.6;;;;;;;4.85;90.82813;939.6793;;;;
2022/09/23 04:34:20;;;;;;;5.3;2.5;;;;;;;4.62;91.9043;939.6603;;;;
2022/09/23 04:36:48;;;;;;;3.5;2.8;;;;;;;4.39;93.4873;939.6733;;;;
2022/09/23 04:39:13;;;;;;;5;3.8;;;;;;;4.42;93.75293;939.7008;;;;
2022/09/23 04:41:42;;;;;;;9.9;6.1;;;;;;;4.38;94.41992;939.573;;;;
2022/09/23 04:44:13;;;;;;;7.3;5.1;;;;;;;4.38;94.67676;939.6895;;;;
2022/09/23 04:46:39;;;;;;;6.2;4.7;;;;;;;4.46;94.88574;939.653;;;;
2022/09/23 04:49:05;;;;;;;8.3;5.6;;;;;;;4.46;94.34766;939.6184;;;;
2022/09/23 04:51:30;;;;;;;7.2;5.2;;;;;;;4.52;93.97754;939.7086;;;;
2022/09/23 04:53:55;;;;;;;10.4;6.1;;;;;;;4.59;93.7793;939.7081;;;;
2022/09/23 04:56:21;;;;;;;12.6;6.9;;;;;;;4.66;93.70508;939.7139;;;;
2022/09/23 04:58:48;;;;;;;12.1;6.6;;;;;;;4.63;93.38184;939.697;;;;
2022/09/23 05:01:14;;;;;;;11.3;5.9;;;;;;;4.72;93.40332;939.7356;;;;
2022/09/23 05:03:44;;;;;;;8.7;5.4;;;;;;;4.77;92.7373;939.7892;;;;
2022/09/23 05:06:12;;;;;;;8.5;4.7;;;;;;;4.61;93.37793;939.7264;;;;
2022/09/23 05:08:37;;;;;;;7;4.7;;;;;;;4.8;92.75488;939.7478;;;;
2022/09/23 05:11:05;;;;;;;5.8;4.1;;;;;;;4.93;91.67773;939.7964;;;;
2022/09/23 05:13:30;;;;;;;7.4;4.7;;;;;;;4.97;91.0127;939.7686;;;;
2022/09/23 05:16:00;;;;;;;9.6;5.4;;;;;;;4.94;91.7373;939.8015;;;;
2022/09/23 05:18:26;;;;;;;8.1;5.1;;;;;;;4.81;92.51953;939.7886;;;;
2022/09/23 05:20:54;;;;;;;10.9;5.8;;;;;;;4.59;93.47656;939.791;;;;
2022/09/23 05:23:19;;;;;;;12.2;7.6;;;;;;;4.74;93.06934;939.7805;;;;
2022/09/23 05:25:47;;;;;;;6.5;4.5;;;;;;;4.75;93.28516;939.7358;;;;
2022/09/23 05:28:11;;;;;;;8;5.5;;;;;;;4.81;92.8916;939.7009;;;;
2022/09/23 05:30:48;;;;;;;7;4.7;;;;;;;4.83;92.91992;939.7838;;;;
2022/09/23 05:33:17;;;;;;;7.8;4.8;;;;;;;4.85;92.13477;939.8656;;;;
2022/09/23 05:35:42;;;;;;;7.3;5.1;;;;;;;4.72;92.53613;939.7356;;;;
2022/09/23 05:38:08;;;;;;;7.1;4.6;;;;;;;4.83;92.02832;939.813;;;;
2022/09/23 05:40:32;;;;;;;7.5;4.4;;;;;;;4.82;92.1748;939.7472;;;;
2022/09/23 05:43:04;;;;;;;7.9;5.1;;;;;;;5.03;92.00488;939.7252;;;;
2022/09/23 05:45:36;;;;;;;9.6;5.7;;;;;;;5.8;91.12988;939.7598;;;;
2022/09/23 05:48:04;;;;;;;7;5;;;;;;;6.8;84.21387;939.8123;;;;
2022/09/23 05:50:29;;;;;;;9;4.6;;;;;;;7.58;80.15918;939.8183;;;;
2022/09/23 05:52:58;;;;;;;6.9;3.9;;;;;;;8.34;76.2002;939.7606;;;;
2022/09/23 05:55:23;;;;;;;5.6;3.9;;;;;;;8.92;73.3584;939.7289;;;;
2022/09/23 05:57:50;;;;;;;5.7;3.7;;;;;;;9.33;71.76465;939.6713;;;;
2022/09/23 06:00:15;;;;;;;5.2;3.2;;;;;;;9.52;71.80664;939.7436;;;;
2022/09/23 06:02:42;;;;;;;10.4;6.4;;;;;;;9.66;70.69141;939.6578;;;;
2022/09/23 06:05:07;;;;;;;5.2;2.9;;;;;;;9.68;69.89746;939.6591;;;;
2022/09/23 06:07:36;;;;;;;5.5;3.1;;;;;;;10.19;68.91895;939.6571;;;;
2022/09/23 06:10:00;;;;;;;3.5;2.6;;;;;;;10.54;67.55762;939.6606;;;;
2022/09/23 06:12:30;;;;;;;6.4;3;;;;;;;10.68;67.23926;939.6204;;;;
2022/09/23 06:14:55;;;;;;;2.4;2.2;;;;;;;10.1;69.52051;939.6337;;;;
2022/09/23 06:17:20;;;;;;;3.6;2.4;;;;;;;10.26;69.45508;939.6889;;;;
2022/09/23 06:19:45;;;;;;;4.7;2.7;;;;;;;10.27;69.84277;939.6627;;;;
2022/09/23 06:22:15;;;;;;;5.2;3.2;;;;;;;10.44;69.43652;939.7033;;;;
2022/09/23 06:24:38;;;;;;;5.3;3.9;;;;;;;10.57;68.34961;939.6108;;;;
2022/09/23 06:27:05;;;;;;;5;3.5;;;;;;;10.64;68.21289;939.6294;;;;
2022/09/23 06:29:31;;;;;;;7.5;2.9;;;;;;;10.83;67.57031;939.6517;;;;
2022/09/23 06:31:58;;;;;;;4;2.8;;;;;;;11.18;66.70898;939.665;;;;
2022/09/23 06:34:21;;;;;;;5.1;2.5;;;;;;;11.33;66.42188;939.5582;;;;
2022/09/23 06:36:50;;;;;;;3.7;2;;;;;;;11.04;66.07031;939.6206;;;;
2022/09/23 06:39:14;;;;;;;3.4;2.2;;;;;;;10.39;69.15625;939.6069;;;;
2022/09/23 06:41:42;;;;;;;4.9;3.1;;;;;;;10.18;70.33203;939.5774;;;;
2022/09/23 06:44:07;;;;;;;8;4.5;;;;;;;9.81;71.82227;939.5547;;;;
2022/09/23 06:46:36;;;;;;;8;3.3;;;;;;;9.5;72.62305;939.6384;;;;
2022/09/23 06:49:02;;;;;;;4.7;3.6;;;;;;;9.89;73.16895;939.5367;;;;
2022/09/23 06:51:28;;;;;;;4.3;3.3;;;;;;;10.46;70.86719;939.6072;;;;
2022/09/23 06:53:54;;;;;;;4.6;2.8;;;;;;;10.06;71.52051;939.509;;;;
2022/09/23 06:56:22;;;;;;;5.4;3.2;;;;;;;10.52;70.46582;939.5585;;;;
2022/09/23 06:58:46;;;;;;;3.6;2.8;;;;;;;10.94;69.70117;939.5183;;;;
2022/09/23 07:01:16;;;;;;;4.5;2.3;;;;;;;11.18;67.29297;939.4833;;;;
2022/09/23 07:03:40;;;;;;;4;2.4;;;;;;;11.34;66.88379;939.4953;;;;
2022/09/23 07:06:07;;;;;;;4.6;2.4;;;;;;;11.71;66.87207;939.4844;;;;
2022/09/23 07:11:54;;;;;;;2.7;2;;;;;;;11.72;64.41113;939.4821;;;;
2022/09/23 07:14:19;;;;;;;2.9;2;;;;;;;11.97;63.88867;939.4595;;;;
2022/09/23 07:16:47;;;;;;;1.7;1.5;;;;;;;11.8;63.24316;939.4526;;;;
2022/09/23 07:19:12;;;;;;;3.2;1.7;;;;;;;12.12;62.82129;939.3912;;;;
2022/09/23 07:21:40;;;;;;;2.6;1.4;;;;;;;12.18;63.00195;939.4561;;;;
2022/09/23 07:24:05;;;;;;;2.1;1.4;;;;;;;12.23;62.56152;939.3961;;;;
2022/09/23 07:26:32;;;;;;;3.6;1.4;;;;;;;12.51;62.78516;939.3911;;;;
2022/09/23 07:29:03;;;;;;;1.5;1.3;;;;;;;13.27;60.34277;939.4406;;;;
2022/09/23 07:31:22;;;;;;;1.8;1.2;;;;;;;13.67;56.94922;939.4348;;;;
2022/09/23 07:33:51;;;;;;;1.5;1.1;;;;;;;14.15;56.73633;939.4003;;;;
2022/09/23 07:36:21;;;;;;;2.8;1.4;;;;;;;14.4;55.60645;939.4288;;;;
2022/09/23 07:38:46;;;;;;;2.2;0.9;;;;;;;14.51;55.97559;939.4353;;;;
2022/09/23 07:41:13;;;;;;;1.1;1;;;;;;;14.86;57.69336;939.387;;;;
2022/09/23 07:43:39;;;;;;;1.7;1.3;;;;;;;15.73;53.19824;939.3415;;;;
2022/09/23 07:46:09;;;;;;;1.6;1.2;;;;;;;16.51;49.78418;939.4103;;;;
2022/09/23 07:48:33;;;;;;;1.8;1.3;;;;;;;17.16;49.09473;939.3918;;;;
2022/09/23 07:51:01;;;;;;;2.3;1.5;;;;;;;17.15;47.70215;939.3801;;;;
2022/09/23 07:53:27;;;;;;;2.1;1.4;;;;;;;18.2;46.38672;939.3809;;;;
2022/09/23 07:55:51;;;;;;;2;1.6;;;;;;;17.73;45.60645;939.2966;;;;
2022/09/23 07:58:19;;;;;;;2.1;1.5;;;;;;;17.09;45.42383;939.2819;;;;
2022/09/23 08:00:44;;;;;;;1.8;1.2;;;;;;;16.5;47.89746;939.3485;;;;
2022/09/23 08:03:14;;;;;;;1.9;1.2;;;;;;;16.71;48.07129;939.3337;;;;
2022/09/23 08:05:47;;;;;;;1.2;1.1;;;;;;;16.31;49.01074;939.3318;;;;
2022/09/23 08:08:16;;;;;;;1.7;1.5;;;;;;;15.89;49.33301;939.3436;;;;
2022/09/23 08:10:41;;;;;;;1.5;1.3;;;;;;;16.37;50.17383;939.2725;;;;
2022/09/23 08:13:09;;;;;;;1.3;1.2;;;;;;;17.38;48.00488;939.2442;;;;
2022/09/23 08:15:35;;;;;;;2;1.1;;;;;;;18.3;46.69922;939.3004;;;;
2022/09/23 08:18:02;;;;;;;1.6;1.4;;;;;;;19;43.90918;939.2159;;;;
2022/09/23 08:20:46;;;;;;;1.5;1.4;;;;;;;17.96;45.26953;939.2158;;;;
2022/09/23 08:22:53;;;;;;;1.3;1.2;;;;;;;17.59;45.05762;939.2717;;;;
2022/09/23 08:25:18;;;;;;;1.6;1.5;;;;;;;18.32;45.35254;939.2639;;;;
2022/09/23 08:27:44;;;;;;;1.9;1.4;;;;;;;19.78;40.88574;939.2406;;;;
2022/09/23 08:30:10;;;;;;;1.9;1.3;;;;;;;19.24;40.48633;939.2048;;;;
2022/09/23 08:32:38;;;;;;;2.2;1.3;;;;;;;19.06;40.99316;939.2327;;;;
2022/09/23 08:35:03;;;;;;;2.1;1.3;;;;;;;20.09;40.61035;939.1849;;;;
2022/09/23 08:37:31;;;;;;;1.8;1.3;;;;;;;22.43;37.50586;939.1361;;;;
2022/09/23 08:39:56;;;;;;;1.3;1.2;;;;;;;23.62;33.67773;939.0769;;;;
2022/09/23 08:42:23;;;;;;;1.4;1.3;;;;;;;24.37;32.10742;939.0801;;;;
2022/09/23 08:44:48;;;;;;;2.6;1.2;;;;;;;24.46;33.15234;938.9892;;;;
2022/09/23 08:47:17;;;;;;;1.9;1.4;;;;;;;23.79;32.7373;939.0848;;;;
2022/09/23 08:49:42;;;;;;;2.4;1;;;;;;;25.06;30.06836;939.0055;;;;
2022/09/23 08:52:08;;;;;;;1.9;1.2;;;;;;;25.91;29.52344;939.0362;;;;
2022/09/23 08:54:33;;;;;;;1.7;1.2;;;;;;;26.47;28.26953;939.0316;;;;
2022/09/23 08:56:59;;;;;;;1.6;1.2;;;;;;;25.51;29.68555;939.0212;;;;
2022/09/23 08:59:27;;;;;;;1.6;1.1;;;;;;;25.65;31.72754;938.9927;;;;
2022/09/23 09:01:49;;;;;;;3.4;1.3;;;;;;;25.45;30.99316;938.9594;;;;
2022/09/23 09:04:17;;;;;;;2.6;1.3;;;;;;;25.22;30.7998;938.938;;;;
2022/09/23 09:06:42;;;;;;;1.5;1.2;;;;;;;25.6;30.625;938.8773;;;;
2022/09/23 09:09:07;;;;;;;1.2;1.1;;;;;;;25.89;30.18457;938.932;;;;
2022/09/23 09:11:40;;;;;;;2.2;1.5;;;;;;;24.78;30.91113;938.9022;;;;
2022/09/23 09:14:05;;;;;;;1.5;1.4;;;;;;;22.16;36.18164;938.9235;;;;
2022/09/23 09:16:38;;;;;;;1.7;1.4;;;;;;;22.33;33.3916;938.8831;;;;
2022/09/23 09:18:58;;;;;;;2.2;1.6;;;;;;;22.54;33.24414;938.8594;;;;
2022/09/23 09:21:23;;;;;;;2.2;1.4;;;;;;;22.69;35.00391;938.8514;;;;
2022/09/23 09:23:48;;;;;;;1.6;1.3;;;;;;;23.36;34.35156;938.7449;;;;
2022/09/23 09:29:57;;;;;;;1.6;1.3;;;;;;;21.73;34.16699;938.7084;;;;
2022/09/23 09:32:21;;;;;;;1.3;1.1;;;;;;;21.78;35.16602;938.6273;;;;
2022/09/23 09:34:46;;;;;;;2.7;1.4;;;;;;;21.58;37.31738;938.6423;;;;
2022/09/23 09:37:21;;;;;;;1.2;1.1;;;;;;;20.67;38.83008;938.6356;;;;
2022/09/23 09:39:54;;;;;;;1.4;1.3;;;;;;;20.56;37.54688;938.6214;;;;
2022/09/23 09:42:19;;;;;;;2.2;1.1;;;;;;;20.35;39.92285;938.6581;;;;
2022/09/23 09:44:48;;;;;;;1.7;1.1;;;;;;;20.27;41.39746;938.6524;;;;
2022/09/23 09:47:17;;;;;;;2.3;1.2;;;;;;;19.53;41.48047;938.6395;;;;
2022/09/23 09:49:42;;;;;;;3;1.4;;;;;;;19.32;42.33398;938.6223;;;;
2022/09/23 09:52:08;;;;;;;2.2;1.2;;;;;;;19.44;42.24023;938.6157;;;;
2022/09/23 09:54:35;;;;;;;2.9;1.3;;;;;;;19.5;43.36523;938.5698;;;;
2022/09/23 09:57:03;;;;;;;2.8;1.1;;;;;;;19.04;37.69727;938.5446;;;;
2022/09/23 09:59:28;;;;;;;2;1.1;;;;;;;18.75;45.16406;938.5327;;;;
2022/09/23 10:01:53;;;;;;;1.3;0.9;;;;;;;18.44;42.0752;938.5184;;;;
2022/09/23 10:04:18;;;;;;;1.2;1.1;;;;;;;18.66;44.07422;938.4305;;;;
2022/09/23 10:06:47;;;;;;;1.5;1.2;;;;;;;18.74;46.48926;938.3562;;;;
2022/09/23 10:09:18;;;;;;;1.4;1;;;;;;;18.77;42.29199;938.337;;;;
2022/09/23 10:11:47;;;;;;;2.4;1.3;;;;;;;18.94;46.09277;938.3755;;;;
2022/09/23 10:14:13;;;;;;;2.1;1;;;;;;;19.42;43.13574;938.3133;;;;
2022/09/23 10:16:38;;;;;;;2.3;1.2;;;;;;;19.62;44.88184;938.3097;;;;
2022/09/23 10:19:05;;;;;;;1.2;1;;;;;;;19.48;43.87598;938.2925;;;;
2022/09/23 10:21:33;;;;;;;2.5;1.3;;;;;;;19.59;46.05566;938.3182;;;;
2022/09/23 10:23:59;;;;;;;1.2;1.1;;;;;;;19.39;43.36523;938.2831;;;;
2022/09/23 10:26:22;;;;;;;2.1;1.4;;;;;;;19.56;44.98047;938.26;;;;
2022/09/23 10:28:47;;;;;;;1.4;1.3;;;;;;;19.88;44.38281;938.1941;;;;
2022/09/23 10:34:41;;;;;;;2.8;1.5;;;;;;;20.65;42.69629;938.1716;;;;
2022/09/23 10:37:09;;;;;;;1.4;1.2;;;;;;;20.9;45.30371;938.1266;;;;
2022/09/23 10:47:34;;;;;;;1.8;1.4;;;;;;;21.74;43.81934;938.0506;;;;
2022/09/23 10:50:00;;;;;;;3.3;1.6;;;;;;;21.62;45.59863;938.0439;;;;
2022/09/23 10:52:24;;;;;;;1.2;1.1;;;;;;;21.85;44.19336;937.9757;;;;
2022/09/23 10:54:49;;;;;;;1.4;1.3;;;;;;;22.03;44.45703;937.9197;;;;
2022/09/23 10:57:39;;;;;;;1.5;1.4;;;;;;;20.97;48.38574;937.9009;;;;
2022/09/23 10:59:41;;;;;;;1.9;1.4;;;;;;;21.61;46.19629;937.882;;;;
2022/09/23 11:02:07;;;;;;;2.4;1.5;;;;;;;22.22;44.95801;937.9026;;;;
2022/09/23 11:04:33;;;;;;;1.7;1.4;;;;;;;22.84;43.55273;937.8386;;;;
2022/09/23 11:06:59;;;;;;;2.9;1.3;;;;;;;21.59;46.09961;937.835;;;;
2022/09/23 11:09:25;;;;;;;3.4;1.4;;;;;;;21.61;45.5166;937.7508;;;;
2022/09/23 11:11:50;;;;;;;2;1.2;;;;;;;21.88;46.3877;937.8314;;;;
2022/09/23 11:14:15;;;;;;;2.3;1.5;;;;;;;21.13;47.2334;937.7681;;;;
2022/09/23 11:16:40;;;;;;;2.3;1.5;;;;;;;21.46;46.30859;937.7697;;;;
2022/09/23 11:19:05;;;;;;;1.7;1.6;;;;;;;21.32;48.58887;937.7852;;;;
2022/09/23 11:21:33;;;;;;;1.4;1.3;;;;;;;21.53;47.25293;937.7495;;;;
2022/09/23 11:23:59;;;;;;;2.4;1.5;;;;;;;21.66;46.56445;937.6894;;;;
2022/09/23 11:26:27;;;;;;;2.6;1.4;;;;;;;21.74;46.77148;937.7037;;;;
2022/09/23 11:28:52;;;;;;;2.7;1.6;;;;;;;21.84;47.54395;937.7266;;;;
2022/09/23 11:31:20;;;;;;;2.2;1.4;;;;;;;22.85;44.89258;937.6433;;;;
2022/09/23 11:33:49;;;;;;;1.8;1.7;;;;;;;23.02;43.99219;937.5694;;;;
2022/09/23 11:36:17;;;;;;;2.5;1.5;;;;;;;22.8;44.78125;937.5686;;;;
2022/09/23 11:38:47;;;;;;;2.5;1.3;;;;;;;23.23;43.32031;937.577;;;;
2022/09/23 11:41:12;;;;;;;3.8;1.8;;;;;;;23.65;42.39746;937.575;;;;
2022/09/23 11:43:38;;;;;;;1.8;1.3;;;;;;;24.6;39.52832;937.5427;;;;
2022/09/23 11:46:05;;;;;;;3;1.5;;;;;;;25.05;38.63574;937.4855;;;;
2022/09/23 11:48:30;;;;;;;2.4;1.2;;;;;;;24.01;41.13574;937.4396;;;;
2022/09/23 11:50:58;;;;;;;1.4;1.3;;;;;;;24.68;39.32324;937.4503;;;;
2022/09/23 11:53:23;;;;;;;2.5;1.4;;;;;;;23.95;42.02539;937.4095;;;;
2022/09/23 11:55:48;;;;;;;3.1;1.4;;;;;;;23.38;42.00684;937.4592;;;;
2022/09/23 11:58:13;;;;;;;1.3;1.2;;;;;;;23.67;41.17578;937.3604;;;;
2022/09/23 12:00:38;;;;;;;2.9;1.5;;;;;;;23.88;43.10156;937.3922;;;;
2022/09/23 12:03:04;;;;;;;2;1.4;;;;;;;24.12;40.76953;937.3102;;;;
2022/09/23 12:05:30;;;;;;;2.7;1.4;;;;;;;23.82;42.26074;937.3488;;;;
2022/09/23 12:08:01;;;;;;;2;1.4;;;;;;;23.05;43.33789;937.3134;;;;
2022/09/23 12:10:25;;;;;;;4.6;1.6;;;;;;;22.98;44.50684;937.2775;;;;
2022/09/23 12:12:50;;;;;;;1.5;1.3;;;;;;;23.13;42.5;937.2988;;;;
2022/09/23 12:15:15;;;;;;;4.1;1.8;;;;;;;22.78;43.60645;937.3603;;;;
2022/09/23 12:17:41;;;;;;;3.5;1.6;;;;;;;23.3;42.55176;937.344;;;;
2022/09/23 12:20:14;;;;;;;1.9;1.5;;;;;;;22.87;43.25;937.2455;;;;
2022/09/23 12:22:41;;;;;;;1.8;1.4;;;;;;;23.09;43.22461;937.1647;;;;
2022/09/23 12:25:12;;;;;;;1.8;1.5;;;;;;;23.24;43.55762;937.2302;;;;
2022/09/23 12:27:38;;;;;;;2.5;1.5;;;;;;;23.93;42.09375;937.1902;;;;
2022/09/23 12:30:03;;;;;;;2.2;1.5;;;;;;;25.38;39.38574;937.2249;;;;
2022/09/23 12:32:34;;;;;;;1.8;1.4;;;;;;;27.3;34.64355;937.2087;;;;
2022/09/23 12:34:59;;;;;;;2.2;1.5;;;;;;;28.23;33.44336;937.1169;;;;
2022/09/23 12:37:24;;;;;;;1.5;1.3;;;;;;;29.77;30.92285;937.145;;;;
2022/09/23 12:39:53;;;;;;;1.9;1.3;;;;;;;29.35;31.49023;937.1301;;;;
2022/09/23 12:42:21;;;;;;;1.8;1.5;;;;;;;26.56;36.16113;937.0869;;;;
2022/09/23 12:44:51;;;;;;;1.6;1.5;;;;;;;27.16;35.43945;937.0717;;;;
2022/09/23 12:50:54;;;;;;;2.1;1.4;;;;;;;26.51;36.46484;937.048;;;;
2022/09/23 12:56:19;;;;;;;3.6;1.4;;;;;;;25.94;36.79785;937.0198;;;;
2022/09/23 12:58:44;;;;;;;1.7;1.4;;;;;;;25.58;38.30273;937.0433;;;;
2022/09/23 13:01:11;;;;;;;1.8;1.3;;;;;;;26.31;36.98145;937.0703;;;;
2022/09/23 13:08:26;;;;;;;3.3;1.7;;;;;;;26.77;36.31934;936.9573;;;;
2022/09/23 13:10:54;;;;;;;2.9;1.3;;;;;;;28.57;32.68359;936.9017;;;;
2022/09/23 13:13:19;;;;;;;2.8;1.5;;;;;;;29.29;31.24707;936.8857;;;;
2022/09/23 13:15:55;;;;;;;2;1.3;;;;;;;28.54;33.16895;936.8322;;;;
2022/09/23 13:18:20;;;;;;;1.6;1.5;;;;;;;29.12;30.44922;936.7809;;;;
2022/09/23 13:20:45;;;;;;;1.7;1.4;;;;;;;27.35;34.23242;936.7733;;;;
2022/09/23 13:23:11;;;;;;;2.1;1.5;;;;;;;26.57;37.23926;936.8223;;;;
2022/09/23 13:25:53;;;;;;;1.6;1.3;;;;;;;27.47;33.9209;936.8499;;;;
2022/09/23 13:28:20;;;;;;;1.7;1.6;;;;;;;27.15;34.27637;936.769;;;;
2022/09/23 13:30:48;;;;;;;1.5;1.4;;;;;;;27.63;33.93262;936.7964;;;;
2022/09/23 13:33:13;;;;;;;1.6;1.4;;;;;;;26.73;35.28613;936.7783;;;;
2022/09/23 13:35:38;;;;;;;2.1;1.3;;;;;;;26.75;34.13965;936.7539;;;;
2022/09/23 13:38:07;;;;;;;1.5;1.4;;;;;;;27.53;33.77148;936.7541;;;;
2022/09/23 13:40:33;;;;;;;1.9;1.5;;;;;;;27.94;32.61426;936.6669;;;;
2022/09/23 13:43:01;;;;;;;2;1.6;;;;;;;27.37;33.59375;936.6331;;;;
2022/09/23 13:45:57;;;;;;;1.2;1.1;;;;;;;25.84;36.82422;936.6319;;;;
2022/09/23 13:48:23;;;;;;;1.9;1.4;;;;;;;25.78;37.03223;936.5463;;;;
2022/09/23 13:50:48;;;;;;;2.2;1.3;;;;;;;25.96;36.53809;936.5711;;;;
2022/09/23 13:53:14;;;;;;;1.7;1.4;;;;;;;26.66;35.22168;936.5564;;;;
2022/09/23 13:55:41;;;;;;;2.5;1.6;;;;;;;26.66;35.28125;936.5254;;;;
2022/09/23 13:58:07;;;;;;;1.5;1.3;;;;;;;25.96;36.60938;936.532;;;;
2022/09/23 14:00:36;;;;;;;1.6;1.3;;;;;;;26.28;35.54688;936.5438;;;;
2022/09/23 14:02:59;;;;;;;2.4;1.5;;;;;;;26.41;35.54492;936.4506;;;;
2022/09/23 14:05:25;;;;;;;1.8;1.5;;;;;;;26.86;34.64551;936.4011;;;;
2022/09/23 14:07:51;;;;;;;1.6;1.3;;;;;;;27.24;34.03418;936.437;;;;
2022/09/23 14:10:17;;;;;;;2.6;1.5;;;;;;;27.39;33.61816;936.4964;;;;
2022/09/23 14:12:43;;;;;;;3.4;1.6;;;;;;;27.64;33.29297;936.4322;;;;
2022/09/23 14:15:09;;;;;;;1.4;1.2;;;;;;;26.93;34.75781;936.4366;;;;
2022/09/23 14:17:39;;;;;;;3.4;1.4;;;;;;;26.71;34.84668;936.3608;;;;
2022/09/23 14:26:01;;;;;;;4.1;1.8;;;;;;;26.55;34.96484;936.4012;;;;
2022/09/23 14:28:30;;;;;;;1.9;1.3;;;;;;;26.45;35.08691;936.3752;;;;
2022/09/23 14:30:58;;;;;;;2.9;1.4;;;;;;;25.55;36.04395;936.2822;;;;
2022/09/23 14:33:23;;;;;;;1.6;1.4;;;;;;;25.03;37.98438;936.3519;;;;
2022/09/23 14:35:51;;;;;;;2.3;1.5;;;;;;;24.4;37.96582;936.351;;;;
2022/09/23 14:40:43;;;;;;;2.4;1.5;;;;;;;23.63;39.88867;936.2744;;;;
2022/09/23 14:43:11;;;;;;;2.2;1.4;;;;;;;23.21;41.32129;936.2497;;;;
2022/09/23 14:45:41;;;;;;;2.2;1.4;;;;;;;22.74;43.44922;936.2269;;;;
2022/09/23 14:48:08;;;;;;;2.7;1.5;;;;;;;22.68;43.39648;936.1914;;;;
2022/09/23 14:50:45;;;;;;;2.5;1.4;;;;;;;22.68;42.29297;936.1583;;;;
2022/09/23 14:53:05;;;;;;;2.1;1.4;;;;;;;22.55;43.10156;936.1573;;;;
2022/09/23 14:55:30;;;;;;;2.9;1.4;;;;;;;22.28;43.61426;936.137;;;;
2022/09/23 14:57:55;;;;;;;3.7;1.5;;;;;;;22.04;43.56836;936.1561;;;;
2022/09/23 15:00:26;;;;;;;2.1;1.4;;;;;;;21.95;44.44922;936.1521;;;;
2022/09/23 15:08:55;;;;;;;2.5;1.6;;;;;;;21.84;44.87207;936.0062;;;;
2022/09/23 15:11:25;;;;;;;2;1.5;;;;;;;21.8;45.00879;936.0041;;;;
2022/09/23 15:17:45;;;;;;;3;1.8;;;;;;;21.53;45.96484;935.9116;;;;
2022/09/23 15:20:16;;;;;;;2.1;1.5;;;;;;;21.53;45.83594;935.9734;;;;
2022/09/23 15:22:47;;;;;;;3.7;1.5;;;;;;;21.34;46.59961;935.976;;;;
2022/09/23 15:25:18;;;;;;;3.2;1.5;;;;;;;21.25;47.33984;936.0033;;;;
2022/09/23 15:27:43;;;;;;;2;1.8;;;;;;;21.21;47.56934;936.0097;;;;
2022/09/23 15:30:09;;;;;;;3.2;2.3;;;;;;;20.89;48.48145;936.0028;;;;
2022/09/23 15:32:35;;;;;;;2.5;1.8;;;;;;;20.78;48.59863;935.9568;;;;
2022/09/23 15:35:00;;;;;;;3;1.7;;;;;;;20.74;48.39648;935.9241;;;;
2022/09/23 15:37:25;;;;;;;2.8;1.7;;;;;;;20.67;48.63281;935.9606;;;;
2022/09/23 15:39:56;;;;;;;2.9;1.8;;;;;;;20.55;49.29785;935.9947;;;;
2022/09/23 15:46:04;;;;;;;2.1;1.6;;;;;;;19.75;50.92285;936.0012;;;;
2022/09/23 15:48:33;;;;;;;1.8;1.6;;;;;;;19.47;51.52051;936.0086;;;;
2022/09/23 15:50:58;;;;;;;1.8;1.7;;;;;;;19.53;51.98145;935.9708;;;;
2022/09/23 15:53:24;;;;;;;2.3;1.9;;;;;;;19.53;51.89941;936.0208;;;;
2022/09/23 15:55:51;;;;;;;4.9;2;;;;;;;19.56;51.98438;936.0581;;;;
2022/09/23 15:58:17;;;;;;;3.4;1.9;;;;;;;19.48;52.38281;936.053;;;;
2022/09/23 16:00:43;;;;;;;1.5;1.4;;;;;;;19.43;52.53027;936.0823;;;;
2022/09/23 16:03:14;;;;;;;1.8;1.6;;;;;;;19.31;52.43359;936.08;;;;
2022/09/23 16:05:45;;;;;;;10.6;5.4;;;;;;;19.18;52.7793;936.0742;;;;
2022/09/23 16:08:08;;;;;;;4.9;2.4;;;;;;;19.17;52.99805;936.0884;;;;
2022/09/23 16:10:39;;;;;;;3.3;2.1;;;;;;;18.8;53.23438;936.0634;;;;
2022/09/23 16:13:10;;;;;;;2.5;2;;;;;;;18.73;53.67969;936.1145;;;;
2022/09/23 16:15:35;;;;;;;6.8;6.1;;;;;;;18.68;54.3252;936.1408;;;;
2022/09/23 16:18:02;;;;;;;5.6;4.7;;;;;;;18.46;56.92383;936.1537;;;;
2022/09/23 16:20:28;;;;;;;6.3;3.9;;;;;;;18.45;57.35449;936.2024;;;;
2022/09/23 16:22:54;;;;;;;4.4;3.3;;;;;;;18.42;57.3623;936.2031;;;;
2022/09/23 16:25:20;;;;;;;3.2;2.3;;;;;;;18.33;57.52344;936.2098;;;;
2022/09/23 16:27:45;;;;;;;5.7;2;;;;;;;18.21;58.7168;936.2059;;;;
2022/09/23 16:30:12;;;;;;;2;1.8;;;;;;;18.12;58.96191;936.245;;;;
2022/09/23 16:33:05;;;;;;;3.7;2.2;;;;;;;17.93;59.72559;936.2972;;;;